sensor_id;sensor_type;location;lat;lon;timestamp;temperature;humidity
23869;DHT22;12115;47.128;15.422;2022-09-09T00:03:55;15.50;99.90
23869;DHT22;12115;47.128;15.422;2022-09-09T00:06:28;15.50;99.90
23869;DHT22;12115;47.128;15.422;2022-09-09T00:09:18;15.50;99.90
23869;DHT22;12115;47.128;15.422;2022-09-09T00:11:57;15.40;99.90
23869;DHT22;12115;47.128;15.422;2022-09-09T00:17:09;15.40;99.90
23869;DHT22;12115;47.128;15.422;2022-09-09T00:19:46;15.40;99.90
23869;DHT22;12115;47.128;15.422;2022-09-09T00:22:19;15.40;99.90
23869;DHT22;12115;47.128;15.422;2022-09-09T00:25:08;15.30;99.90
23869;DHT22;12115;47.128;15.422;2022-09-09T00:27:45;15.30;99.90
23869;DHT22;12115;47.128;15.422;2022-09-09T00:30:19;15.30;99.90
23869;DHT22;12115;47.128;15.422;2022-09-09T00:32:53;15.30;99.90
23869;DHT22;12115;47.128;15.422;2022-09-09T00:38:00;15.20;99.90
23869;DHT22;12115;47.128;15.422;2022-09-09T00:40:38;15.00;99.90
23869;DHT22;12115;47.128;15.422;2022-09-09T00:43:32;14.80;99.90
23869;DHT22;12115;47.128;15.422;2022-09-09T00:48:45;14.80;99.90
23869;DHT22;12115;47.128;15.422;2022-09-09T00:51:30;14.80;99.90
23869;DHT22;12115;47.128;15.422;2022-09-09T00:57:05;14.70;99.90
23869;DHT22;12115;47.128;15.422;2022-09-09T00:59:52;14.70;99.90
23869;DHT22;12115;47.128;15.422;2022-09-09T01:02:41;14.70;99.90
23869;DHT22;12115;47.128;15.422;2022-09-09T01:05:19;14.60;99.90
23869;DHT22;12115;47.128;15.422;2022-09-09T01:07:49;14.60;99.90
23869;DHT22;12115;47.128;15.422;2022-09-09T01:10:37;14.50;99.90
23869;DHT22;12115;47.128;15.422;2022-09-09T01:13:24;14.50;99.90
23869;DHT22;12115;47.128;15.422;2022-09-09T01:15:53;14.50;99.90
23869;DHT22;12115;47.128;15.422;2022-09-09T01:18:41;14.40;99.90
23869;DHT22;12115;47.128;15.422;2022-09-09T01:27:14;14.20;99.90
23869;DHT22;12115;47.128;15.422;2022-09-09T01:29:48;14.20;99.90
23869;DHT22;12115;47.128;15.422;2022-09-09T01:32:57;14.20;99.90
23869;DHT22;12115;47.128;15.422;2022-09-09T01:35:50;14.20;99.90
23869;DHT22;12115;47.128;15.422;2022-09-09T01:38:25;14.20;99.90
23869;DHT22;12115;47.128;15.422;2022-09-09T01:40:56;14.10;99.90
23869;DHT22;12115;47.128;15.422;2022-09-09T01:43:38;14.10;99.90
23869;DHT22;12115;47.128;15.422;2022-09-09T01:46:09;14.10;99.90
23869;DHT22;12115;47.128;15.422;2022-09-09T01:48:40;14.00;99.90
23869;DHT22;12115;47.128;15.422;2022-09-09T01:51:10;13.90;99.90
23869;DHT22;12115;47.128;15.422;2022-09-09T01:53:43;13.90;99.90
23869;DHT22;12115;47.128;15.422;2022-09-09T02:02:30;14.00;99.90
23869;DHT22;12115;47.128;15.422;2022-09-09T02:08:20;13.90;99.90
23869;DHT22;12115;47.128;15.422;2022-09-09T02:11:16;13.90;99.90
23869;DHT22;12115;47.128;15.422;2022-09-09T02:13:54;13.90;99.90
23869;DHT22;12115;47.128;15.422;2022-09-09T02:18:58;13.90;99.90
23869;DHT22;12115;47.128;15.422;2022-09-09T02:21:48;13.80;99.90
23869;DHT22;12115;47.128;15.422;2022-09-09T02:24:19;13.80;99.90
23869;DHT22;12115;47.128;15.422;2022-09-09T02:27:05;13.80;99.90
23869;DHT22;12115;47.128;15.422;2022-09-09T02:29:37;13.80;99.90
23869;DHT22;12115;47.128;15.422;2022-09-09T02:32:17;13.80;99.90
23869;DHT22;12115;47.128;15.422;2022-09-09T02:34:55;13.80;99.90
23869;DHT22;12115;47.128;15.422;2022-09-09T02:37:29;13.70;99.90
23869;DHT22;12115;47.128;15.422;2022-09-09T02:40:06;13.70;99.90
23869;DHT22;12115;47.128;15.422;2022-09-09T02:42:44;13.70;99.90
23869;DHT22;12115;47.128;15.422;2022-09-09T02:45:15;13.70;99.90
23869;DHT22;12115;47.128;15.422;2022-09-09T02:51:07;13.70;99.90
23869;DHT22;12115;47.128;15.422;2022-09-09T02:53:50;13.70;99.90
23869;DHT22;12115;47.128;15.422;2022-09-09T02:56:28;13.70;99.90
23869;DHT22;12115;47.128;15.422;2022-09-09T02:58:57;13.70;99.90
23869;DHT22;12115;47.128;15.422;2022-09-09T03:01:25;13.70;99.90
23869;DHT22;12115;47.128;15.422;2022-09-09T03:03:57;13.70;99.90
23869;DHT22;12115;47.128;15.422;2022-09-09T03:06:29;13.70;99.90
23869;DHT22;12115;47.128;15.422;2022-09-09T03:09:11;13.70;99.90
23869;DHT22;12115;47.128;15.422;2022-09-09T03:11:38;13.80;99.90
23869;DHT22;12115;47.128;15.422;2022-09-09T03:14:07;13.60;99.90
23869;DHT22;12115;47.128;15.422;2022-09-09T03:16:43;13.70;99.90
23869;DHT22;12115;47.128;15.422;2022-09-09T03:19:11;13.70;99.90
23869;DHT22;12115;47.128;15.422;2022-09-09T03:21:40;13.70;99.90
23869;DHT22;12115;47.128;15.422;2022-09-09T03:24:07;13.80;99.90
23869;DHT22;12115;47.128;15.422;2022-09-09T03:26:39;13.80;99.90
23869;DHT22;12115;47.128;15.422;2022-09-09T03:29:12;13.80;99.90
23869;DHT22;12115;47.128;15.422;2022-09-09T03:31:44;13.70;99.90
23869;DHT22;12115;47.128;15.422;2022-09-09T03:34:13;13.60;99.90
23869;DHT22;12115;47.128;15.422;2022-09-09T03:36:47;13.80;99.90
23869;DHT22;12115;47.128;15.422;2022-09-09T03:39:19;13.80;99.90
23869;DHT22;12115;47.128;15.422;2022-09-09T03:41:51;13.70;99.90
23869;DHT22;12115;47.128;15.422;2022-09-09T03:44:20;13.70;99.90
23869;DHT22;12115;47.128;15.422;2022-09-09T03:46:50;13.60;99.90
23869;DHT22;12115;47.128;15.422;2022-09-09T03:49:29;13.60;99.90
23869;DHT22;12115;47.128;15.422;2022-09-09T03:52:14;13.60;99.90
23869;DHT22;12115;47.128;15.422;2022-09-09T03:54:49;13.60;99.90
23869;DHT22;12115;47.128;15.422;2022-09-09T03:57:20;13.60;99.90
23869;DHT22;12115;47.128;15.422;2022-09-09T03:59:49;13.60;99.90
23869;DHT22;12115;47.128;15.422;2022-09-09T04:02:21;13.60;99.90
23869;DHT22;12115;47.128;15.422;2022-09-09T04:04:49;13.60;99.90
23869;DHT22;12115;47.128;15.422;2022-09-09T04:07:19;13.60;99.90
23869;DHT22;12115;47.128;15.422;2022-09-09T04:09:48;13.60;99.90
23869;DHT22;12115;47.128;15.422;2022-09-09T04:12:16;13.60;99.90
23869;DHT22;12115;47.128;15.422;2022-09-09T04:14:49;13.60;99.90
23869;DHT22;12115;47.128;15.422;2022-09-09T04:17:20;13.60;99.90
23869;DHT22;12115;47.128;15.422;2022-09-09T04:19:48;13.50;99.90
23869;DHT22;12115;47.128;15.422;2022-09-09T04:22:16;13.50;99.90
23869;DHT22;12115;47.128;15.422;2022-09-09T04:24:48;13.50;99.90
23869;DHT22;12115;47.128;15.422;2022-09-09T04:27:18;13.50;99.90
23869;DHT22;12115;47.128;15.422;2022-09-09T04:29:54;13.60;99.90
23869;DHT22;12115;47.128;15.422;2022-09-09T04:32:35;13.60;99.90
23869;DHT22;12115;47.128;15.422;2022-09-09T04:35:09;13.60;99.90
23869;DHT22;12115;47.128;15.422;2022-09-09T04:37:42;13.60;99.90
23869;DHT22;12115;47.128;15.422;2022-09-09T04:40:12;13.60;99.90
23869;DHT22;12115;47.128;15.422;2022-09-09T04:42:45;13.60;99.90
23869;DHT22;12115;47.128;15.422;2022-09-09T04:45:18;13.60;99.90
23869;DHT22;12115;47.128;15.422;2022-09-09T04:47:48;13.70;99.90
23869;DHT22;12115;47.128;15.422;2022-09-09T04:50:25;13.70;99.90
23869;DHT22;12115;47.128;15.422;2022-09-09T04:53:02;13.70;99.90
23869;DHT22;12115;47.128;15.422;2022-09-09T04:55:41;13.70;99.90
23869;DHT22;12115;47.128;15.422;2022-09-09T04:58:11;13.80;99.90
23869;DHT22;12115;47.128;15.422;2022-09-09T05:00:40;13.80;99.90
23869;DHT22;12115;47.128;15.422;2022-09-09T05:03:15;13.80;99.90
23869;DHT22;12115;47.128;15.422;2022-09-09T05:05:46;13.60;99.90
23869;DHT22;12115;47.128;15.422;2022-09-09T05:08:20;13.70;99.90
23869;DHT22;12115;47.128;15.422;2022-09-09T05:10:50;13.70;99.90
23869;DHT22;12115;47.128;15.422;2022-09-09T05:13:19;13.70;99.90
23869;DHT22;12115;47.128;15.422;2022-09-09T05:16:01;13.80;99.90
23869;DHT22;12115;47.128;15.422;2022-09-09T05:18:44;13.80;99.90
23869;DHT22;12115;47.128;15.422;2022-09-09T05:21:22;13.80;99.90
23869;DHT22;12115;47.128;15.422;2022-09-09T05:23:58;13.90;99.90
23869;DHT22;12115;47.128;15.422;2022-09-09T05:26:30;14.00;99.90
23869;DHT22;12115;47.128;15.422;2022-09-09T05:29:01;13.90;99.90
23869;DHT22;12115;47.128;15.422;2022-09-09T05:31:30;14.00;99.90
23869;DHT22;12115;47.128;15.422;2022-09-09T05:34:02;14.00;99.90
23869;DHT22;12115;47.128;15.422;2022-09-09T05:36:35;14.10;99.90
23869;DHT22;12115;47.128;15.422;2022-09-09T05:39:06;14.10;99.90
23869;DHT22;12115;47.128;15.422;2022-09-09T05:41:34;14.20;99.90
23869;DHT22;12115;47.128;15.422;2022-09-09T05:44:03;14.30;99.90
23869;DHT22;12115;47.128;15.422;2022-09-09T05:46:38;14.40;99.90
23869;DHT22;12115;47.128;15.422;2022-09-09T05:49:06;14.40;99.90
23869;DHT22;12115;47.128;15.422;2022-09-09T05:51:35;14.50;99.90
23869;DHT22;12115;47.128;15.422;2022-09-09T05:54:13;14.50;99.90
23869;DHT22;12115;47.128;15.422;2022-09-09T05:56:49;14.60;99.90
23869;DHT22;12115;47.128;15.422;2022-09-09T05:59:26;14.60;99.90
23869;DHT22;12115;47.128;15.422;2022-09-09T06:01:57;14.70;99.90
23869;DHT22;12115;47.128;15.422;2022-09-09T06:04:35;14.80;99.90
23869;DHT22;12115;47.128;15.422;2022-09-09T06:07:11;14.90;99.90
23869;DHT22;12115;47.128;15.422;2022-09-09T06:09:43;15.00;99.90
23869;DHT22;12115;47.128;15.422;2022-09-09T06:12:13;14.90;99.90
23869;DHT22;12115;47.128;15.422;2022-09-09T06:14:43;14.90;99.90
23869;DHT22;12115;47.128;15.422;2022-09-09T06:17:14;15.00;99.90
23869;DHT22;12115;47.128;15.422;2022-09-09T06:19:41;15.00;99.90
23869;DHT22;12115;47.128;15.422;2022-09-09T06:22:08;15.10;99.90
23869;DHT22;12115;47.128;15.422;2022-09-09T06:24:39;15.10;99.90
23869;DHT22;12115;47.128;15.422;2022-09-09T06:27:06;15.20;99.90
23869;DHT22;12115;47.128;15.422;2022-09-09T06:29:35;15.20;99.90
23869;DHT22;12115;47.128;15.422;2022-09-09T06:32:03;15.20;99.90
23869;DHT22;12115;47.128;15.422;2022-09-09T06:34:30;15.30;99.90
23869;DHT22;12115;47.128;15.422;2022-09-09T06:36:58;15.30;99.90
23869;DHT22;12115;47.128;15.422;2022-09-09T06:39:32;15.40;99.90
23869;DHT22;12115;47.128;15.422;2022-09-09T06:41:59;15.50;99.90
23869;DHT22;12115;47.128;15.422;2022-09-09T06:44:56;15.50;99.90
23869;DHT22;12115;47.128;15.422;2022-09-09T06:47:43;15.60;99.90
23869;DHT22;12115;47.128;15.422;2022-09-09T06:50:11;15.70;99.90
23869;DHT22;12115;47.128;15.422;2022-09-09T06:52:38;15.80;99.90
23869;DHT22;12115;47.128;15.422;2022-09-09T06:55:07;15.90;99.90
23869;DHT22;12115;47.128;15.422;2022-09-09T06:57:35;16.00;99.90
23869;DHT22;12115;47.128;15.422;2022-09-09T07:00:15;16.10;99.90
23869;DHT22;12115;47.128;15.422;2022-09-09T07:02:42;16.20;99.90
23869;DHT22;12115;47.128;15.422;2022-09-09T07:05:11;16.20;99.90
23869;DHT22;12115;47.128;15.422;2022-09-09T07:07:40;16.20;99.90
23869;DHT22;12115;47.128;15.422;2022-09-09T07:10:08;16.20;99.90
23869;DHT22;12115;47.128;15.422;2022-09-09T07:12:36;16.30;99.90
23869;DHT22;12115;47.128;15.422;2022-09-09T07:15:08;16.30;99.90
23869;DHT22;12115;47.128;15.422;2022-09-09T07:17:35;16.20;99.90
23869;DHT22;12115;47.128;15.422;2022-09-09T07:20:02;16.20;99.90
23869;DHT22;12115;47.128;15.422;2022-09-09T07:22:31;16.20;99.90
23869;DHT22;12115;47.128;15.422;2022-09-09T07:25:00;16.20;99.90
23869;DHT22;12115;47.128;15.422;2022-09-09T07:27:28;16.30;99.90
23869;DHT22;12115;47.128;15.422;2022-09-09T07:29:55;16.30;99.90
23869;DHT22;12115;47.128;15.422;2022-09-09T07:32:23;16.30;99.90
23869;DHT22;12115;47.128;15.422;2022-09-09T07:34:52;16.30;99.90
23869;DHT22;12115;47.128;15.422;2022-09-09T07:37:20;16.30;99.90
23869;DHT22;12115;47.128;15.422;2022-09-09T07:39:47;16.40;99.90
23869;DHT22;12115;47.128;15.422;2022-09-09T07:42:16;16.40;99.90
23869;DHT22;12115;47.128;15.422;2022-09-09T07:44:44;16.50;99.90
23869;DHT22;12115;47.128;15.422;2022-09-09T07:47:13;16.50;99.90
23869;DHT22;12115;47.128;15.422;2022-09-09T07:49:44;16.50;99.90
23869;DHT22;12115;47.128;15.422;2022-09-09T07:52:16;16.60;99.90
23869;DHT22;12115;47.128;15.422;2022-09-09T07:54:50;16.60;99.90
23869;DHT22;12115;47.128;15.422;2022-09-09T07:57:17;16.60;99.90
23869;DHT22;12115;47.128;15.422;2022-09-09T07:59:46;16.60;99.90
23869;DHT22;12115;47.128;15.422;2022-09-09T08:02:13;16.70;99.90
23869;DHT22;12115;47.128;15.422;2022-09-09T08:04:40;16.70;99.90
23869;DHT22;12115;47.128;15.422;2022-09-09T08:07:08;16.70;99.90
23869;DHT22;12115;47.128;15.422;2022-09-09T08:09:42;16.70;99.90
23869;DHT22;12115;47.128;15.422;2022-09-09T08:12:17;16.70;99.90
23869;DHT22;12115;47.128;15.422;2022-09-09T08:14:45;16.70;99.90
23869;DHT22;12115;47.128;15.422;2022-09-09T08:17:12;16.70;99.90
23869;DHT22;12115;47.128;15.422;2022-09-09T08:19:39;16.80;99.90
23869;DHT22;12115;47.128;15.422;2022-09-09T08:22:10;16.80;99.90
23869;DHT22;12115;47.128;15.422;2022-09-09T08:24:39;16.90;99.90
23869;DHT22;12115;47.128;15.422;2022-09-09T08:27:07;16.90;99.90
23869;DHT22;12115;47.128;15.422;2022-09-09T08:29:34;16.90;99.90
23869;DHT22;12115;47.128;15.422;2022-09-09T08:32:01;16.90;99.90
23869;DHT22;12115;47.128;15.422;2022-09-09T08:34:28;17.00;99.90
23869;DHT22;12115;47.128;15.422;2022-09-09T08:37:00;17.00;99.90
23869;DHT22;12115;47.128;15.422;2022-09-09T08:39:33;17.00;99.90
23869;DHT22;12115;47.128;15.422;2022-09-09T08:42:40;17.10;99.90
23869;DHT22;12115;47.128;15.422;2022-09-09T08:50:53;17.20;99.90
23869;DHT22;12115;47.128;15.422;2022-09-09T08:53:47;17.20;99.90
23869;DHT22;12115;47.128;15.422;2022-09-09T08:56:24;17.20;99.90
23869;DHT22;12115;47.128;15.422;2022-09-09T08:58:57;17.30;99.90
23869;DHT22;12115;47.128;15.422;2022-09-09T09:02:00;17.30;99.90
23869;DHT22;12115;47.128;15.422;2022-09-09T09:05:13;17.40;99.90
23869;DHT22;12115;47.128;15.422;2022-09-09T09:10:48;17.50;99.90
23869;DHT22;12115;47.128;15.422;2022-09-09T09:16:02;17.70;99.90
23869;DHT22;12115;47.128;15.422;2022-09-09T09:18:33;17.80;99.90
23869;DHT22;12115;47.128;15.422;2022-09-09T09:24:01;18.10;99.90
23869;DHT22;12115;47.128;15.422;2022-09-09T09:26:34;18.30;99.90
23869;DHT22;12115;47.128;15.422;2022-09-09T09:29:16;18.30;99.90
23869;DHT22;12115;47.128;15.422;2022-09-09T09:31:55;18.40;99.90
23869;DHT22;12115;47.128;15.422;2022-09-09T09:34:24;18.50;99.90
23869;DHT22;12115;47.128;15.422;2022-09-09T09:36:59;18.60;99.90
23869;DHT22;12115;47.128;15.422;2022-09-09T09:39:33;18.70;99.90
23869;DHT22;12115;47.128;15.422;2022-09-09T09:42:25;18.90;99.90
23869;DHT22;12115;47.128;15.422;2022-09-09T09:44:55;19.00;99.90
23869;DHT22;12115;47.128;15.422;2022-09-09T09:47:23;19.00;99.90
23869;DHT22;12115;47.128;15.422;2022-09-09T09:50:19;19.10;99.90
23869;DHT22;12115;47.128;15.422;2022-09-09T09:52:58;19.10;99.90
23869;DHT22;12115;47.128;15.422;2022-09-09T09:55:29;19.20;99.90
23869;DHT22;12115;47.128;15.422;2022-09-09T09:58:03;19.30;99.90
23869;DHT22;12115;47.128;15.422;2022-09-09T10:00:32;19.50;99.90
23869;DHT22;12115;47.128;15.422;2022-09-09T10:03:29;19.70;99.90
23869;DHT22;12115;47.128;15.422;2022-09-09T10:05:58;20.00;99.90
23869;DHT22;12115;47.128;15.422;2022-09-09T10:08:26;20.20;99.90
23869;DHT22;12115;47.128;15.422;2022-09-09T10:11:19;20.40;99.90
23869;DHT22;12115;47.128;15.422;2022-09-09T10:20:31;20.90;99.90
23869;DHT22;12115;47.128;15.422;2022-09-09T10:35:40;21.60;99.90
23869;DHT22;12115;47.128;15.422;2022-09-09T10:38:33;21.70;99.90
23869;DHT22;12115;47.128;15.422;2022-09-09T10:41:15;21.70;99.90
23869;DHT22;12115;47.128;15.422;2022-09-09T10:46:51;21.40;99.90
23869;DHT22;12115;47.128;15.422;2022-09-09T10:52:40;21.40;99.90
23869;DHT22;12115;47.128;15.422;2022-09-09T11:03:04;21.50;99.90
23869;DHT22;12115;47.128;15.422;2022-09-09T11:05:42;21.40;99.90
23869;DHT22;12115;47.128;15.422;2022-09-09T11:08:19;21.40;99.90
23869;DHT22;12115;47.128;15.422;2022-09-09T11:11:17;21.40;99.90
23869;DHT22;12115;47.128;15.422;2022-09-09T11:16:59;21.30;99.90
23869;DHT22;12115;47.128;15.422;2022-09-09T11:19:34;21.20;99.90
23869;DHT22;12115;47.128;15.422;2022-09-09T11:22:08;21.20;99.90
23869;DHT22;12115;47.128;15.422;2022-09-09T11:24:49;21.20;99.90
23869;DHT22;12115;47.128;15.422;2022-09-09T11:27:26;21.10;99.90
23869;DHT22;12115;47.128;15.422;2022-09-09T11:30:20;21.10;99.90
23869;DHT22;12115;47.128;15.422;2022-09-09T11:36:10;21.00;99.90
23869;DHT22;12115;47.128;15.422;2022-09-09T11:38:47;21.00;99.90
23869;DHT22;12115;47.128;15.422;2022-09-09T11:41:15;21.10;99.90
23869;DHT22;12115;47.128;15.422;2022-09-09T11:43:53;21.10;99.90
23869;DHT22;12115;47.128;15.422;2022-09-09T11:46:31;21.10;99.90
23869;DHT22;12115;47.128;15.422;2022-09-09T11:49:26;21.10;99.90
23869;DHT22;12115;47.128;15.422;2022-09-09T11:51:54;21.10;99.90
23869;DHT22;12115;47.128;15.422;2022-09-09T11:54:33;21.10;99.90
23869;DHT22;12115;47.128;15.422;2022-09-09T11:57:32;21.20;99.90
23869;DHT22;12115;47.128;15.422;2022-09-09T12:00:01;21.20;99.90
23869;DHT22;12115;47.128;15.422;2022-09-09T12:02:48;21.20;99.90
23869;DHT22;12115;47.128;15.422;2022-09-09T12:05:17;21.30;99.90
23869;DHT22;12115;47.128;15.422;2022-09-09T12:07:51;21.30;99.90
23869;DHT22;12115;47.128;15.422;2022-09-09T12:10:27;21.30;99.90
23869;DHT22;12115;47.128;15.422;2022-09-09T12:13:08;21.30;99.90
23869;DHT22;12115;47.128;15.422;2022-09-09T12:15:58;21.30;99.90
23869;DHT22;12115;47.128;15.422;2022-09-09T12:18:33;21.30;99.90
23869;DHT22;12115;47.128;15.422;2022-09-09T12:24:04;21.20;99.90
23869;DHT22;12115;47.128;15.422;2022-09-09T12:26:38;21.20;99.90
23869;DHT22;12115;47.128;15.422;2022-09-09T12:39:57;21.20;99.90
23869;DHT22;12115;47.128;15.422;2022-09-09T12:42:26;21.30;99.90
23869;DHT22;12115;47.128;15.422;2022-09-09T12:44:58;21.30;99.90
23869;DHT22;12115;47.128;15.422;2022-09-09T12:47:48;21.20;99.90
23869;DHT22;12115;47.128;15.422;2022-09-09T12:50:29;21.20;99.90
23869;DHT22;12115;47.128;15.422;2022-09-09T12:53:03;21.20;99.90
23869;DHT22;12115;47.128;15.422;2022-09-09T12:55:36;21.20;99.90
23869;DHT22;12115;47.128;15.422;2022-09-09T12:58:04;21.20;99.90
23869;DHT22;12115;47.128;15.422;2022-09-09T13:00:34;21.20;99.90
23869;DHT22;12115;47.128;15.422;2022-09-09T13:03:13;21.10;99.90
23869;DHT22;12115;47.128;15.422;2022-09-09T13:05:41;21.00;99.90
23869;DHT22;12115;47.128;15.422;2022-09-09T13:08:10;21.10;99.90
23869;DHT22;12115;47.128;15.422;2022-09-09T13:11:06;21.00;99.90
23869;DHT22;12115;47.128;15.422;2022-09-09T13:16:04;21.00;99.90
23869;DHT22;12115;47.128;15.422;2022-09-09T13:18:40;21.00;99.90
23869;DHT22;12115;47.128;15.422;2022-09-09T13:21:09;21.00;99.90
23869;DHT22;12115;47.128;15.422;2022-09-09T13:23:37;21.00;99.90
23869;DHT22;12115;47.128;15.422;2022-09-09T13:26:07;21.00;99.90
23869;DHT22;12115;47.128;15.422;2022-09-09T13:28:48;21.00;99.90
23869;DHT22;12115;47.128;15.422;2022-09-09T13:31:23;20.90;99.90
23869;DHT22;12115;47.128;15.422;2022-09-09T13:33:51;21.00;99.90
23869;DHT22;12115;47.128;15.422;2022-09-09T13:36:40;20.90;99.90
23869;DHT22;12115;47.128;15.422;2022-09-09T13:39:17;20.90;99.90
23869;DHT22;12115;47.128;15.422;2022-09-09T13:41:46;20.90;99.90
23869;DHT22;12115;47.128;15.422;2022-09-09T13:44:27;20.90;99.90
23869;DHT22;12115;47.128;15.422;2022-09-09T13:49:41;20.80;99.90
23869;DHT22;12115;47.128;15.422;2022-09-09T13:52:13;20.80;99.90
23869;DHT22;12115;47.128;15.422;2022-09-09T13:54:41;20.80;99.90
23869;DHT22;12115;47.128;15.422;2022-09-09T13:57:19;20.70;99.90
23869;DHT22;12115;47.128;15.422;2022-09-09T13:59:47;20.70;99.90
23869;DHT22;12115;47.128;15.422;2022-09-09T14:02:32;20.60;99.90
23869;DHT22;12115;47.128;15.422;2022-09-09T14:04:59;20.60;99.90
23869;DHT22;12115;47.128;15.422;2022-09-09T14:07:26;20.50;99.90
23869;DHT22;12115;47.128;15.422;2022-09-09T14:09:53;20.50;99.90
23869;DHT22;12115;47.128;15.422;2022-09-09T14:12:21;20.40;99.90
23869;DHT22;12115;47.128;15.422;2022-09-09T14:14:48;20.40;99.90
23869;DHT22;12115;47.128;15.422;2022-09-09T14:17:16;20.30;99.90
23869;DHT22;12115;47.128;15.422;2022-09-09T14:19:44;20.30;99.90
23869;DHT22;12115;47.128;15.422;2022-09-09T14:22:12;20.30;99.90
23869;DHT22;12115;47.128;15.422;2022-09-09T14:24:39;20.30;99.90
23869;DHT22;12115;47.128;15.422;2022-09-09T14:27:07;20.40;99.90
23869;DHT22;12115;47.128;15.422;2022-09-09T14:29:34;20.30;99.90
23869;DHT22;12115;47.128;15.422;2022-09-09T14:32:01;20.30;99.90
23869;DHT22;12115;47.128;15.422;2022-09-09T14:34:28;20.30;99.90
23869;DHT22;12115;47.128;15.422;2022-09-09T14:36:55;20.40;99.90
23869;DHT22;12115;47.128;15.422;2022-09-09T14:39:22;20.30;99.90
23869;DHT22;12115;47.128;15.422;2022-09-09T14:41:49;20.30;99.90
23869;DHT22;12115;47.128;15.422;2022-09-09T14:44:16;20.20;99.90
23869;DHT22;12115;47.128;15.422;2022-09-09T14:46:44;20.20;99.90
23869;DHT22;12115;47.128;15.422;2022-09-09T14:49:11;20.10;99.90
23869;DHT22;12115;47.128;15.422;2022-09-09T14:51:39;20.00;99.90
23869;DHT22;12115;47.128;15.422;2022-09-09T14:54:06;20.00;99.90
23869;DHT22;12115;47.128;15.422;2022-09-09T14:56:34;20.00;99.90
23869;DHT22;12115;47.128;15.422;2022-09-09T14:59:04;20.00;99.90
23869;DHT22;12115;47.128;15.422;2022-09-09T15:01:31;19.90;99.90
23869;DHT22;12115;47.128;15.422;2022-09-09T15:04:02;19.90;99.90
23869;DHT22;12115;47.128;15.422;2022-09-09T15:06:32;19.90;99.90
23869;DHT22;12115;47.128;15.422;2022-09-09T15:09:00;19.90;99.90
23869;DHT22;12115;47.128;15.422;2022-09-09T15:11:29;19.90;99.90
23869;DHT22;12115;47.128;15.422;2022-09-09T15:13:57;19.90;99.90
23869;DHT22;12115;47.128;15.422;2022-09-09T15:16:27;19.90;99.90
23869;DHT22;12115;47.128;15.422;2022-09-09T15:18:57;19.70;99.90
23869;DHT22;12115;47.128;15.422;2022-09-09T15:21:26;19.70;99.90
23869;DHT22;12115;47.128;15.422;2022-09-09T15:23:55;19.70;99.90
23869;DHT22;12115;47.128;15.422;2022-09-09T15:26:22;19.70;99.90
23869;DHT22;12115;47.128;15.422;2022-09-09T15:28:50;19.70;99.90
23869;DHT22;12115;47.128;15.422;2022-09-09T15:31:18;19.70;99.90
23869;DHT22;12115;47.128;15.422;2022-09-09T15:33:48;19.70;99.90
23869;DHT22;12115;47.128;15.422;2022-09-09T15:36:23;19.70;99.90
23869;DHT22;12115;47.128;15.422;2022-09-09T15:38:51;19.60;99.90
23869;DHT22;12115;47.128;15.422;2022-09-09T15:41:20;19.50;99.90
23869;DHT22;12115;47.128;15.422;2022-09-09T15:43:50;19.50;99.90
23869;DHT22;12115;47.128;15.422;2022-09-09T15:48:45;19.50;99.90
23869;DHT22;12115;47.128;15.422;2022-09-09T15:51:15;19.50;99.90
23869;DHT22;12115;47.128;15.422;2022-09-09T15:54:03;19.40;99.90
23869;DHT22;12115;47.128;15.422;2022-09-09T15:56:31;19.40;99.90
23869;DHT22;12115;47.128;15.422;2022-09-09T15:59:00;19.40;99.90
23869;DHT22;12115;47.128;15.422;2022-09-09T16:01:29;19.40;99.90
23869;DHT22;12115;47.128;15.422;2022-09-09T16:03:58;19.30;99.90
23869;DHT22;12115;47.128;15.422;2022-09-09T16:06:28;19.40;99.90
23869;DHT22;12115;47.128;15.422;2022-09-09T16:08:58;19.40;99.90
23869;DHT22;12115;47.128;15.422;2022-09-09T16:11:27;19.30;99.90
23869;DHT22;12115;47.128;15.422;2022-09-09T16:13:55;19.30;99.90
23869;DHT22;12115;47.128;15.422;2022-09-09T16:16:25;19.30;99.90
23869;DHT22;12115;47.128;15.422;2022-09-09T16:19:09;19.30;99.90
23869;DHT22;12115;47.128;15.422;2022-09-09T16:21:45;19.30;99.90
23869;DHT22;12115;47.128;15.422;2022-09-09T16:24:16;19.30;99.90
23869;DHT22;12115;47.128;15.422;2022-09-09T16:26:47;19.30;99.90
23869;DHT22;12115;47.128;15.422;2022-09-09T16:29:16;19.20;99.90
23869;DHT22;12115;47.128;15.422;2022-09-09T16:31:45;19.20;99.90
23869;DHT22;12115;47.128;15.422;2022-09-09T16:34:13;19.10;99.90
23869;DHT22;12115;47.128;15.422;2022-09-09T16:36:43;19.00;99.90
23869;DHT22;12115;47.128;15.422;2022-09-09T16:39:13;19.00;99.90
23869;DHT22;12115;47.128;15.422;2022-09-09T16:41:41;19.10;99.90
23869;DHT22;12115;47.128;15.422;2022-09-09T16:44:11;19.00;99.90
23869;DHT22;12115;47.128;15.422;2022-09-09T16:46:40;18.90;99.90
23869;DHT22;12115;47.128;15.422;2022-09-09T16:49:10;18.80;99.90
23869;DHT22;12115;47.128;15.422;2022-09-09T16:51:43;18.70;99.90
23869;DHT22;12115;47.128;15.422;2022-09-09T16:54:11;18.80;99.90
23869;DHT22;12115;47.128;15.422;2022-09-09T16:56:42;18.90;99.90
23869;DHT22;12115;47.128;15.422;2022-09-09T16:59:13;18.80;99.90
23869;DHT22;12115;47.128;15.422;2022-09-09T17:01:49;18.70;99.90
23869;DHT22;12115;47.128;15.422;2022-09-09T17:04:19;18.80;99.90
23869;DHT22;12115;47.128;15.422;2022-09-09T17:06:52;18.80;99.90
23869;DHT22;12115;47.128;15.422;2022-09-09T17:09:21;18.80;99.90
23869;DHT22;12115;47.128;15.422;2022-09-09T17:11:50;18.80;99.90
23869;DHT22;12115;47.128;15.422;2022-09-09T17:14:20;18.80;99.90
23869;DHT22;12115;47.128;15.422;2022-09-09T17:16:48;18.80;99.90
23869;DHT22;12115;47.128;15.422;2022-09-09T17:19:15;18.70;99.90
23869;DHT22;12115;47.128;15.422;2022-09-09T17:21:42;18.70;99.90
23869;DHT22;12115;47.128;15.422;2022-09-09T17:24:30;18.70;99.90
23869;DHT22;12115;47.128;15.422;2022-09-09T17:26:57;18.60;99.90
23869;DHT22;12115;47.128;15.422;2022-09-09T17:29:25;18.60;99.90
23869;DHT22;12115;47.128;15.422;2022-09-09T17:31:53;18.50;99.90
23869;DHT22;12115;47.128;15.422;2022-09-09T17:37:38;18.40;99.90
23869;DHT22;12115;47.128;15.422;2022-09-09T17:40:06;18.40;99.90
23869;DHT22;12115;47.128;15.422;2022-09-09T17:42:33;18.40;99.90
23869;DHT22;12115;47.128;15.422;2022-09-09T17:45:01;18.40;99.90
23869;DHT22;12115;47.128;15.422;2022-09-09T17:47:27;18.50;99.90